DLH759 VOMM-EDDF
Flight info
| Callsign | DLH759 |
|---|---|
| Flight time | N/A |
| Altitude | 34000 |
| Route | DOLKI2B DOLKI Q8 AGELA W56 BBB G208 APANO G451 AAE Z8 VIKIT P628 RK G202 ZB L750 RANAH B449 INRAK A240 KRS B143 TUNEK A909 RODAR N644 LAGAS DCT SARPI UM10 GOKPA UL746 ODERO DCT OPT DCT SOKRU DCT ARSIN DCT SUBEN DCT AKINI T161 DEBHI DEBHI1B |
| Aircraft | A343/H-SDE2E3FGHIJ3J5M1P2RWXYZ/LB1D1 |
Departure
| Time | 2026-04-23 02:27 |
|---|---|
| Airport | Chennai International Airport (VOMM) |
Arrival
| Time | N/A |
|---|---|
| Airport | Frankfurt Main Airport (EDDF) |
| Time | Latitude | Longitude | Altitude | Speed | Heading |
|---|---|---|---|---|---|
| 2026-04-23 00:59 | 12.98476 | 80.16635 | 52 ft | 0 kts | 162° |
| 2026-04-23 02:18 | 12.98479 | 80.16635 | 52 ft | 4 kts | 162° |
| 2026-04-23 02:18 | 12.98486 | 80.16632 | 45 ft | 4 kts | 156° |
| 2026-04-23 02:18 | 12.98502 | 80.16624 | 50 ft | 4 kts | 149° |
| 2026-04-23 02:19 | 12.98531 | 80.16602 | 44 ft | 4 kts | 134° |
| 2026-04-23 02:19 | 12.98547 | 80.16583 | 48 ft | 1 kts | 123° |
| 2026-04-23 02:19 | 12.98549 | 80.16579 | 46 ft | 0 kts | 123° |
| 2026-04-23 02:22 | 12.98546 | 80.16583 | 48 ft | 2 kts | 123° |
| 2026-04-23 02:23 | 12.98536 | 80.16607 | 45 ft | 8 kts | 114° |
| 2026-04-23 02:23 | 12.98528 | 80.16693 | 49 ft | 15 kts | 68° |
| 2026-04-23 02:23 | 12.98599 | 80.16757 | 47 ft | 13 kts | 19° |
| 2026-04-23 02:23 | 12.98710 | 80.16748 | 47 ft | 21 kts | 353° |
| 2026-04-23 02:24 | 12.98796 | 80.16806 | 52 ft | 15 kts | 67° |
| 2026-04-23 02:24 | 12.98858 | 80.16971 | 48 ft | 34 kts | 72° |
| 2026-04-23 02:24 | 12.98939 | 80.17208 | 51 ft | 34 kts | 66° |
| 2026-04-23 02:24 | 12.99032 | 80.17430 | 47 ft | 34 kts | 68° |
| 2026-04-23 02:25 | 12.99121 | 80.17650 | 46 ft | 33 kts | 58° |
| 2026-04-23 02:25 | 12.99249 | 80.17834 | 50 ft | 31 kts | 67° |
| 2026-04-23 02:25 | 12.99324 | 80.18033 | 48 ft | 29 kts | 69° |
| 2026-04-23 02:25 | 12.99446 | 80.18112 | 52 ft | 14 kts | 341° |
| 2026-04-23 02:26 | 12.99463 | 80.18082 | 48 ft | 2 kts | 248° |
| 2026-04-23 02:26 | 12.99423 | 80.17984 | 51 ft | 37 kts | 248° |
| 2026-04-23 02:26 | 12.99276 | 80.17574 | 48 ft | 84 kts | 250° |
| 2026-04-23 02:26 | 12.99014 | 80.16887 | 49 ft | 124 kts | 249° |
| 2026-04-23 02:27 | 12.98666 | 80.15949 | 50 ft | 157 kts | 249° |
| 2026-04-23 02:27 | 12.98242 | 80.14864 | 182 ft | 176 kts | 247° |
| 2026-04-23 02:27 | 12.97701 | 80.13690 | 627 ft | 177 kts | 238° |
| 2026-04-23 02:27 | 12.96690 | 80.12939 | 829 ft | 190 kts | 200° |
| 2026-04-23 02:28 | 12.95396 | 80.12899 | 1436 ft | 182 kts | 175° |
| 2026-04-23 02:28 | 12.94178 | 80.12578 | 1772 ft | 191 kts | 216° |
| 2026-04-23 02:28 | 12.93500 | 80.11370 | 1956 ft | 212 kts | 261° |
| 2026-04-23 02:28 | 12.93836 | 80.09821 | 2088 ft | 241 kts | 302° |
| 2026-04-23 02:29 | 12.95178 | 80.08714 | 2370 ft | 261 kts | 339° |
| 2026-04-23 02:29 | 12.97002 | 80.08616 | 2826 ft | 268 kts | 17° |
| 2026-04-23 02:29 | 12.98563 | 80.09603 | 3411 ft | 266 kts | 52° |
| 2026-04-23 02:29 | 12.99597 | 80.11167 | 4036 ft | 265 kts | 58° |
| 2026-04-23 02:30 | 13.00806 | 80.12543 | 4629 ft | 268 kts | 33° |
| 2026-04-23 02:30 | 13.02584 | 80.13104 | 5222 ft | 272 kts | 5° |
| 2026-04-23 02:30 | 13.04507 | 80.13129 | 5671 ft | 281 kts | 2° |
| 2026-04-23 02:30 | 13.06526 | 80.13153 | 5825 ft | 301 kts | 4° |
| 2026-04-23 02:31 | 13.08700 | 80.13352 | 5841 ft | 325 kts | 10° |
| 2026-04-23 02:31 | 13.11012 | 80.13691 | 5830 ft | 348 kts | 10° |
| 2026-04-23 02:31 | 13.13480 | 80.14060 | 5825 ft | 369 kts | 10° |
| 2026-04-23 02:31 | 13.15856 | 80.14399 | 7403 ft | 325 kts | 10° |
| 2026-04-23 02:32 | 13.17962 | 80.14674 | 9197 ft | 286 kts | 9° |
| 2026-04-23 02:32 | 13.19827 | 80.14892 | 10618 ft | 254 kts | 9° |
| 2026-04-23 02:32 | 13.21498 | 80.15056 | 11754 ft | 229 kts | 8° |
| 2026-04-23 02:32 | 13.23014 | 80.15167 | 12702 ft | 208 kts | 6° |
| 2026-04-23 02:33 | 13.24395 | 80.15214 | 13457 ft | 190 kts | 3° |
| 2026-04-23 02:33 | 13.25661 | 80.15181 | 13972 ft | 174 kts | 359° |
| 2026-04-23 02:33 | 13.26827 | 80.15039 | 14243 ft | 165 kts | 352° |
| 2026-04-23 02:33 | 13.27956 | 80.14752 | 14191 ft | 175 kts | 346° |
| 2026-04-23 02:34 | 13.29122 | 80.14298 | 14196 ft | 180 kts | 339° |
| 2026-04-23 02:34 | 13.30198 | 80.13708 | 14428 ft | 171 kts | 331° |
| 2026-04-23 02:34 | 13.31178 | 80.12986 | 14432 ft | 178 kts | 324° |
| 2026-04-23 02:34 | 13.32102 | 80.12103 | 14423 ft | 184 kts | 317° |
| 2026-04-23 02:35 | 13.32906 | 80.11103 | 14582 ft | 179 kts | 309° |
| 2026-04-23 02:35 | 13.33566 | 80.10007 | 14628 ft | 183 kts | 301° |
| 2026-04-23 02:35 | 13.34091 | 80.08787 | 14625 ft | 189 kts | 293° |
| 2026-04-23 02:35 | 13.34448 | 80.07486 | 14713 ft | 188 kts | 284° |
| 2026-04-23 02:36 | 13.34610 | 80.06175 | 14779 ft | 189 kts | 275° |
| 2026-04-23 02:36 | 13.34578 | 80.04801 | 14776 ft | 195 kts | 266° |
| 2026-04-23 02:36 | 13.34334 | 80.03424 | 14854 ft | 195 kts | 256° |
| 2026-04-23 02:36 | 13.33873 | 80.02116 | 14927 ft | 195 kts | 246° |
| 2026-04-23 02:37 | 13.33192 | 80.00893 | 14928 ft | 200 kts | 235° |
| 2026-04-23 02:37 | 13.32298 | 79.99805 | 15013 ft | 198 kts | 224° |
| 2026-04-23 02:37 | 13.31241 | 79.98931 | 15064 ft | 198 kts | 211° |
| 2026-04-23 02:37 | 13.30004 | 79.98283 | 15074 ft | 201 kts | 198° |
| 2026-04-23 02:38 | 13.28660 | 79.97936 | 15159 ft | 196 kts | 183° |
| 2026-04-23 02:38 | 13.27310 | 79.97942 | 15244 ft | 193 kts | 167° |
| 2026-04-23 02:38 | 13.26018 | 79.98329 | 15227 ft | 194 kts | 149° |
| 2026-04-23 02:38 | 13.24907 | 79.99096 | 15263 ft | 191 kts | 130° |
| 2026-04-23 02:39 | 13.24144 | 80.00157 | 15324 ft | 185 kts | 109° |
| 2026-04-23 02:39 | 13.23830 | 80.01429 | 15316 ft | 184 kts | 86° |
| 2026-04-23 02:39 | 13.24060 | 80.02703 | 15327 ft | 182 kts | 61° |
| 2026-04-23 02:39 | 13.24819 | 80.03718 | 15378 ft | 180 kts | 34° |
| 2026-04-23 02:40 | 13.25968 | 80.04226 | 15371 ft | 183 kts | 6° |
| 2026-04-23 02:40 | 13.27224 | 80.04067 | 15366 ft | 189 kts | 336° |
| 2026-04-23 02:40 | 13.28256 | 80.03227 | 15387 ft | 194 kts | 304° |
| 2026-04-23 02:40 | 13.28696 | 80.01909 | 15385 ft | 201 kts | 270° |
| 2026-04-23 02:41 | 13.28331 | 80.00520 | 15349 ft | 208 kts | 233° |
| 2026-04-23 02:41 | 13.27224 | 79.99605 | 15321 ft | 210 kts | 193° |
| 2026-04-23 02:41 | 13.25807 | 79.99634 | 15271 ft | 207 kts | 147° |
| 2026-04-23 02:41 | 13.24868 | 80.00684 | 15138 ft | 203 kts | 96° |
| 2026-04-23 02:42 | 13.25117 | 80.02044 | 15062 ft | 199 kts | 43° |
| 2026-04-23 02:42 | 13.26316 | 80.02578 | 15096 ft | 197 kts | 351° |
| 2026-04-23 02:42 | 13.27467 | 80.01860 | 15074 ft | 206 kts | 298° |
| 2026-04-23 02:42 | 13.27637 | 80.00397 | 15020 ft | 218 kts | 246° |
| 2026-04-23 02:43 | 13.26633 | 79.99294 | 14982 ft | 219 kts | 194° |
| 2026-04-23 02:43 | 13.25181 | 79.99378 | 14958 ft | 211 kts | 140° |
| 2026-04-23 02:43 | 13.24407 | 80.00550 | 14918 ft | 201 kts | 86° |
| 2026-04-23 02:43 | 13.24893 | 80.01812 | 14896 ft | 194 kts | 32° |
| 2026-04-23 02:44 | 13.26172 | 80.02083 | 14897 ft | 198 kts | 340° |
| 2026-04-23 02:44 | 13.27163 | 80.01153 | 14879 ft | 208 kts | 288° |
| 2026-04-23 02:44 | 13.27071 | 79.99676 | 14821 ft | 218 kts | 235° |
| 2026-04-23 02:44 | 13.25875 | 79.98781 | 14795 ft | 218 kts | 181° |
| 2026-04-23 02:45 | 13.24486 | 79.99159 | 14768 ft | 208 kts | 127° |
| 2026-04-23 02:45 | 13.23991 | 80.00453 | 14739 ft | 197 kts | 73° |
| 2026-04-23 02:45 | 13.24728 | 80.01529 | 14722 ft | 193 kts | 20° |
| 2026-04-23 02:45 | 13.26035 | 80.01484 | 14723 ft | 199 kts | 327° |
| 2026-04-23 02:46 | 13.26800 | 80.00311 | 14703 ft | 211 kts | 274° |
| 2026-04-23 02:46 | 13.26367 | 79.98888 | 14661 ft | 219 kts | 221° |
| 2026-04-23 02:46 | 13.25023 | 79.98309 | 14636 ft | 216 kts | 167° |
| 2026-04-23 02:46 | 13.23781 | 79.99008 | 14609 ft | 204 kts | 112° |
| 2026-04-23 02:47 | 13.23640 | 80.00359 | 14587 ft | 193 kts | 58° |
| 2026-04-23 02:47 | 13.24642 | 80.01172 | 14576 ft | 192 kts | 4° |
| 2026-04-23 02:47 | 13.25885 | 80.00743 | 14573 ft | 202 kts | 311° |
| 2026-04-23 02:47 | 13.26313 | 79.99369 | 14553 ft | 214 kts | 257° |
| 2026-04-23 02:48 | 13.25520 | 79.98122 | 14508 ft | 219 kts | 204° |
| 2026-04-23 02:48 | 13.24074 | 79.97953 | 14485 ft | 212 kts | 149° |
| 2026-04-23 02:48 | 13.23124 | 79.98981 | 14475 ft | 199 kts | 94° |
| 2026-04-23 02:48 | 13.23423 | 80.00273 | 14462 ft | 190 kts | 39° |
| 2026-04-23 02:49 | 13.24616 | 80.00684 | 14458 ft | 194 kts | 346° |
| 2026-04-23 02:49 | 13.25682 | 79.99851 | 14458 ft | 206 kts | 293° |
| 2026-04-23 02:49 | 13.25686 | 79.98390 | 14429 ft | 216 kts | 239° |
| 2026-04-23 02:49 | 13.24571 | 79.97431 | 14398 ft | 218 kts | 186° |
| 2026-04-23 02:50 | 13.23161 | 79.97717 | 14371 ft | 207 kts | 130° |
| 2026-04-23 02:50 | 13.22617 | 79.98971 | 14342 ft | 194 kts | 75° |
| 2026-04-23 02:50 | 13.23315 | 80.00041 | 14344 ft | 189 kts | 20° |
| 2026-04-23 02:50 | 13.24595 | 79.99995 | 14347 ft | 197 kts | 327° |
| 2026-04-23 02:51 | 13.25344 | 79.98812 | 14320 ft | 213 kts | 276° |
| 2026-04-23 02:51 | 13.24973 | 79.97233 | 13930 ft | 255 kts | 235° |
| 2026-04-23 02:51 | 13.23487 | 79.96015 | 13561 ft | 290 kts | 196° |
| 2026-04-23 02:51 | 13.21594 | 79.95930 | 14266 ft | 262 kts | 156° |
| 2026-04-23 02:52 | 13.20224 | 79.96919 | 15001 ft | 244 kts | 128° |
| 2026-04-23 02:52 | 13.19245 | 79.98468 | 14686 ft | 275 kts | 108° |
| 2026-04-23 02:52 | 13.18750 | 80.00460 | 14474 ft | 303 kts | 94° |
| 2026-04-23 02:52 | 13.18508 | 80.02690 | 14493 ft | 322 kts | 98° |
| 2026-04-23 02:53 | 13.17683 | 80.04801 | 15032 ft | 324 kts | 123° |
| 2026-04-23 02:53 | 13.16101 | 80.06441 | 15597 ft | 326 kts | 146° |
| 2026-04-23 02:53 | 13.14001 | 80.07354 | 16022 ft | 330 kts | 167° |
| 2026-04-23 02:53 | 13.11736 | 80.07783 | 16465 ft | 332 kts | 169° |
| 2026-04-23 02:54 | 13.09415 | 80.07900 | 16866 ft | 336 kts | 186° |
| 2026-04-23 02:54 | 13.07177 | 80.07296 | 17273 ft | 339 kts | 207° |
| 2026-04-23 02:54 | 13.05280 | 80.05863 | 17582 ft | 344 kts | 230° |
| 2026-04-23 02:54 | 13.04104 | 80.03721 | 17766 ft | 352 kts | 255° |
| 2026-04-23 02:55 | 13.03905 | 80.01191 | 17958 ft | 360 kts | 279° |
| 2026-04-23 02:55 | 13.04743 | 79.98745 | 18144 ft | 369 kts | 302° |
| 2026-04-23 02:55 | 13.06433 | 79.96778 | 18329 ft | 377 kts | 319° |
| 2026-04-23 02:55 | 13.08469 | 79.95030 | 18507 ft | 386 kts | 320° |
| 2026-04-23 02:56 | 13.10555 | 79.93221 | 18680 ft | 396 kts | 319° |
| 2026-04-23 02:56 | 13.12655 | 79.91347 | 18837 ft | 405 kts | 318° |
| 2026-04-23 02:56 | 13.14762 | 79.89433 | 19022 ft | 413 kts | 318° |
| 2026-04-23 02:56 | 13.16925 | 79.87452 | 19286 ft | 418 kts | 317° |
| 2026-04-23 02:57 | 13.19107 | 79.85441 | 19620 ft | 421 kts | 317° |
| 2026-04-23 02:57 | 13.21305 | 79.83412 | 19954 ft | 425 kts | 317° |
| 2026-04-23 02:57 | 13.23482 | 79.81398 | 20289 ft | 427 kts | 316° |
| 2026-04-23 02:57 | 13.25703 | 79.79341 | 20616 ft | 431 kts | 316° |
| 2026-04-23 02:58 | 13.27943 | 79.77265 | 20989 ft | 432 kts | 316° |
| 2026-04-23 02:58 | 13.30179 | 79.75192 | 21362 ft | 434 kts | 316° |
| 2026-04-23 02:58 | 13.32424 | 79.73109 | 21721 ft | 436 kts | 316° |
| 2026-04-23 02:58 | 13.34683 | 79.71012 | 22072 ft | 438 kts | 316° |
| 2026-04-23 02:59 | 13.36948 | 79.68910 | 22411 ft | 440 kts | 315° |
| 2026-04-23 02:59 | 13.39202 | 79.66818 | 22758 ft | 442 kts | 315° |
| 2026-04-23 02:59 | 13.41498 | 79.64686 | 23085 ft | 445 kts | 315° |
| 2026-04-23 02:59 | 13.43804 | 79.62543 | 23424 ft | 447 kts | 315° |
| 2026-04-23 03:00 | 13.46119 | 79.60392 | 23719 ft | 449 kts | 315° |
| 2026-04-23 03:00 | 13.48420 | 79.58253 | 23987 ft | 451 kts | 315° |
| 2026-04-23 03:00 | 13.50763 | 79.56075 | 24269 ft | 453 kts | 315° |
| 2026-04-23 03:00 | 13.53119 | 79.53884 | 24542 ft | 456 kts | 315° |
| 2026-04-23 03:01 | 13.55449 | 79.51717 | 24791 ft | 458 kts | 314° |
| 2026-04-23 03:01 | 13.57815 | 79.49516 | 25091 ft | 459 kts | 314° |
| 2026-04-23 03:01 | 13.60195 | 79.47300 | 25353 ft | 462 kts | 314° |
| 2026-04-23 03:01 | 13.62585 | 79.45075 | 25620 ft | 464 kts | 314° |
| 2026-04-23 03:02 | 13.64983 | 79.42843 | 25930 ft | 465 kts | 314° |
| 2026-04-23 03:02 | 13.67361 | 79.40629 | 26258 ft | 465 kts | 313° |
| 2026-04-23 03:02 | 13.69772 | 79.38382 | 26520 ft | 468 kts | 313° |
| 2026-04-23 03:02 | 13.72194 | 79.36123 | 26769 ft | 470 kts | 313° |
| 2026-04-23 03:03 | 13.74628 | 79.33854 | 26998 ft | 472 kts | 313° |
| 2026-04-23 03:03 | 13.77050 | 79.31594 | 27279 ft | 473 kts | 313° |
| 2026-04-23 03:03 | 13.79501 | 79.29308 | 27527 ft | 475 kts | 313° |
| 2026-04-23 03:03 | 13.81963 | 79.27011 | 27771 ft | 477 kts | 313° |
| 2026-04-23 03:04 | 13.84392 | 79.24742 | 28019 ft | 478 kts | 313° |
| 2026-04-23 03:04 | 13.86854 | 79.22444 | 28382 ft | 478 kts | 313° |
| 2026-04-23 03:04 | 13.89324 | 79.20136 | 28527 ft | 481 kts | 312° |
| 2026-04-23 03:04 | 13.91817 | 79.17806 | 28706 ft | 485 kts | 312° |
| 2026-04-23 03:05 | 13.94325 | 79.15464 | 28917 ft | 486 kts | 312° |
| 2026-04-23 03:05 | 13.96805 | 79.13145 | 29168 ft | 488 kts | 312° |
| 2026-04-23 03:05 | 13.99323 | 79.10791 | 29407 ft | 489 kts | 312° |
| 2026-04-23 03:05 | 14.01849 | 79.08428 | 29622 ft | 491 kts | 311° |
| 2026-04-23 03:06 | 14.04387 | 79.06053 | 29844 ft | 493 kts | 311° |
| 2026-04-23 03:06 | 14.06935 | 79.03668 | 30087 ft | 493 kts | 311° |
| 2026-04-23 03:06 | 14.08618 | 79.02092 | 30235 ft | 493 kts | 311° |
| 2026-04-23 03:06 | 14.12022 | 78.98906 | 30555 ft | 493 kts | 311° |
| 2026-04-23 03:07 | 14.13701 | 78.97334 | 30708 ft | 493 kts | 311° |
| 2026-04-23 03:07 | 14.17070 | 78.94176 | 30987 ft | 493 kts | 311° |
| 2026-04-23 03:07 | 14.19608 | 78.91797 | 31211 ft | 493 kts | 311° |
| 2026-04-23 03:07 | 14.22143 | 78.89421 | 31455 ft | 492 kts | 311° |
| 2026-04-23 03:08 | 14.23821 | 78.87847 | 31592 ft | 492 kts | 311° |
| 2026-04-23 03:08 | 14.27213 | 78.84663 | 31878 ft | 492 kts | 311° |
| 2026-04-23 03:08 | 14.29601 | 78.82156 | 32080 ft | 485 kts | 303° |
| 2026-04-23 03:08 | 14.31557 | 78.79418 | 32322 ft | 478 kts | 296° |
| 2026-04-23 03:09 | 14.33380 | 78.76567 | 32643 ft | 474 kts | 296° |
| 2026-04-23 03:09 | 14.35186 | 78.73725 | 32855 ft | 474 kts | 296° |
| 2026-04-23 03:09 | 14.37000 | 78.70872 | 33020 ft | 474 kts | 296° |
| 2026-04-23 03:09 | 14.38807 | 78.68033 | 33219 ft | 474 kts | 296° |
| 2026-04-23 03:10 | 14.40624 | 78.65179 | 33403 ft | 474 kts | 296° |
| 2026-04-23 03:10 | 14.41818 | 78.63305 | 33528 ft | 474 kts | 296° |
| 2026-04-23 03:10 | 14.43634 | 78.60454 | 33704 ft | 473 kts | 296° |
| 2026-04-23 03:10 | 14.45440 | 78.57617 | 33893 ft | 473 kts | 296° |
| 2026-04-23 03:11 | 14.47833 | 78.53856 | 34084 ft | 473 kts | 296° |
| 2026-04-23 03:11 | 14.49053 | 78.51939 | 34186 ft | 472 kts | 296° |
| 2026-04-23 03:11 | 14.50858 | 78.49102 | 34327 ft | 472 kts | 296° |
| 2026-04-23 03:11 | 14.52657 | 78.46272 | 34479 ft | 471 kts | 296° |
| 2026-04-23 03:12 | 14.54434 | 78.43476 | 34629 ft | 471 kts | 296° |
| 2026-04-23 03:12 | 14.56228 | 78.40651 | 34751 ft | 471 kts | 296° |
| 2026-04-23 03:12 | 14.58027 | 78.37819 | 34878 ft | 471 kts | 296° |
| 2026-04-23 03:13 | 14.61641 | 78.32124 | 34898 ft | 473 kts | 296° |
| 2026-04-23 03:13 | 14.65224 | 78.26480 | 34900 ft | 470 kts | 296° |
| 2026-04-23 03:14 | 14.68813 | 78.20817 | 34903 ft | 470 kts | 296° |
| 2026-04-23 03:14 | 14.72405 | 78.15146 | 34907 ft | 471 kts | 296° |
| 2026-04-23 03:15 | 14.75970 | 78.09514 | 34913 ft | 471 kts | 296° |
| 2026-04-23 03:15 | 14.79556 | 78.03846 | 34912 ft | 470 kts | 296° |
| 2026-04-23 03:16 | 14.83142 | 77.98173 | 34918 ft | 470 kts | 296° |
| 2026-04-23 03:16 | 14.88497 | 77.89693 | 34922 ft | 472 kts | 296° |
| 2026-04-23 03:17 | 14.92085 | 77.84006 | 34918 ft | 472 kts | 296° |